Time;durP1;ratioP1;P1;durP2;ratioP2;P2;SDS_P1;SDS_P2;PMS_P1;PMS_P2;Temp;Humidity;BMP_temperature;BMP_pressure;BME280_temperature;BME280_humidity;BME280_pressure;Samples;Min_cycle;Max_cycle;Signal;HPM_P1;HPM_P2
2021/07/29 00:01:27;;;;;;;4.97;1.55;;;;;;;;;;5016272;28;20137;-88
2021/07/29 00:03:52;;;;;;;6.13;1.05;;;;;;;;;;5026722;28;20029;-89
2021/07/29 00:06:18;;;;;;;9.38;1.52;;;;;;;;;;5015079;28;20033;-88
2021/07/29 00:08:43;;;;;;;2.17;1.08;;;;;;;;;;5021257;28;20473;-89
2021/07/29 00:11:09;;;;;;;1.83;1.00;;;;;;;;;;5024434;28;20022;-88
2021/07/29 00:13:35;;;;;;;2.88;1.05;;;;;;;;;;5058053;28;20033;-88
2021/07/29 00:16:02;;;;;;;5.55;1.23;;;;;;;;;;5018951;28;20022;-88
2021/07/29 00:21:11;;;;;;;2.25;1.00;;;;;;;;;;5015880;28;20029;-89
2021/07/29 00:23:37;;;;;;;4.25;1.10;;;;;;;;;;5016378;28;20444;-88
2021/07/29 00:26:02;;;;;;;3.50;1.00;;;;;;;;;;5018090;28;20022;-88
2021/07/29 00:28:27;;;;;;;4.60;1.35;;;;;;;;;;5013341;28;20029;-88
2021/07/29 00:30:52;;;;;;;7.30;1.30;;;;;;;;;;5016912;28;20018;-89
2021/07/29 00:33:17;;;;;;;8.43;1.67;;;;;;;;;;5013347;28;20030;-88
2021/07/29 00:35:43;;;;;;;3.70;1.05;;;;;;;;;;5013423;28;20033;-89
2021/07/29 00:38:08;;;;;;;3.13;1.20;;;;;;;;;;5019816;28;20017;-88
2021/07/29 00:40:33;;;;;;;5.10;0.95;;;;;;;;;;5021325;28;20474;-88
2021/07/29 00:42:58;;;;;;;3.03;1.08;;;;;;;;;;5013858;28;20049;-88
2021/07/29 00:45:24;;;;;;;6.07;1.30;;;;;;;;;;5021151;28;20540;-88
2021/07/29 00:47:50;;;;;;;7.25;1.02;;;;;;;;;;5017156;28;20018;-88
2021/07/29 00:50:15;;;;;;;4.60;1.20;;;;;;;;;;5013095;28;20022;-88
2021/07/29 00:52:40;;;;;;;2.55;1.17;;;;;;;;;;5019904;28;20461;-88
2021/07/29 00:55:07;;;;;;;7.45;1.42;;;;;;;;;;5019002;28;20014;-88
2021/07/29 00:57:33;;;;;;;5.38;1.10;;;;;;;;;;5014335;28;20448;-88
2021/07/29 00:59:58;;;;;;;4.78;1.40;;;;;;;;;;5012842;28;20508;-89
2021/07/29 01:02:23;;;;;;;2.05;1.00;;;;;;;;;;5012729;28;20026;-88
2021/07/29 01:04:49;;;;;;;5.93;1.40;;;;;;;;;;5012468;28;20060;-88
2021/07/29 01:07:14;;;;;;;3.15;0.93;;;;;;;;;;5018645;28;20470;-89
2021/07/29 01:09:42;;;;;;;2.67;0.80;;;;;;;;;;5013067;28;20029;-88
2021/07/29 01:12:08;;;;;;;3.53;1.20;;;;;;;;;;5012987;28;20497;-88
2021/07/29 01:14:33;;;;;;;6.97;1.40;;;;;;;;;;5017021;28;20021;-88
2021/07/29 01:16:58;;;;;;;3.30;1.15;;;;;;;;;;5020210;28;20022;-88
2021/07/29 01:19:25;;;;;;;3.75;1.27;;;;;;;;;;5027505;28;20441;-88
2021/07/29 01:21:50;;;;;;;5.07;1.30;;;;;;;;;;5012704;28;20022;-88
2021/07/29 01:24:15;;;;;;;5.22;1.45;;;;;;;;;;5018230;28;20052;-88
2021/07/29 01:26:41;;;;;;;3.20;0.50;;;;;;;;;;5013764;28;20073;-88
2021/07/29 01:29:06;;;;;;;5.20;1.25;;;;;;;;;;5013198;28;20404;-89
2021/07/29 01:31:31;;;;;;;5.25;1.10;;;;;;;;;;5013245;28;20474;-89
2021/07/29 01:33:56;;;;;;;7.18;1.60;;;;;;;;;;5015390;28;20021;-88
2021/07/29 01:36:22;;;;;;;7.22;1.65;;;;;;;;;;5023212;28;20025;-88
2021/07/29 01:38:47;;;;;;;4.78;1.50;;;;;;;;;;5020574;28;20025;-88
2021/07/29 01:41:12;;;;;;;7.78;1.95;;;;;;;;;;5023467;28;20052;-87
2021/07/29 01:43:37;;;;;;;3.33;0.88;;;;;;;;;;5015005;28;20481;-88
2021/07/29 01:46:03;;;;;;;6.22;1.40;;;;;;;;;;5013474;28;20412;-88
2021/07/29 01:48:29;;;;;;;6.80;1.52;;;;;;;;;;5018901;28;20103;-88
2021/07/29 01:50:54;;;;;;;9.25;1.45;;;;;;;;;;5013503;28;20504;-88
2021/07/29 01:53:19;;;;;;;8.85;1.70;;;;;;;;;;5013340;28;20413;-88
2021/07/29 01:55:45;;;;;;;8.43;1.35;;;;;;;;;;5019471;28;20025;-88
2021/07/29 01:58:11;;;;;;;7.10;1.60;;;;;;;;;;5012275;28;20109;-88
2021/07/29 02:00:37;;;;;;;9.68;1.40;;;;;;;;;;5012497;28;20433;-88
2021/07/29 02:03:03;;;;;;;4.50;1.25;;;;;;;;;;5017973;28;20030;-88
2021/07/29 02:05:28;;;;;;;5.57;1.33;;;;;;;;;;5012207;28;20113;-88
2021/07/29 02:07:53;;;;;;;3.58;0.95;;;;;;;;;;5018935;28;20113;-89
2021/07/29 02:10:19;;;;;;;4.68;1.45;;;;;;;;;;5017148;28;20064;-89
2021/07/29 02:12:44;;;;;;;7.82;1.40;;;;;;;;;;5022175;28;20075;-89
2021/07/29 02:15:10;;;;;;;9.55;1.27;;;;;;;;;;5015970;28;20355;-89
2021/07/29 02:17:35;;;;;;;6.68;1.48;;;;;;;;;;5019085;28;20033;-89
2021/07/29 02:20:00;;;;;;;8.55;1.40;;;;;;;;;;5012405;28;20049;-88
2021/07/29 02:22:25;;;;;;;7.03;1.35;;;;;;;;;;5014503;28;20057;-89
2021/07/29 02:24:50;;;;;;;7.38;1.33;;;;;;;;;;5012721;28;20071;-89
2021/07/29 02:27:16;;;;;;;4.13;1.15;;;;;;;;;;5015233;28;20049;-89
2021/07/29 02:29:42;;;;;;;5.80;1.38;;;;;;;;;;5016099;28;20117;-88
2021/07/29 02:32:07;;;;;;;4.40;1.33;;;;;;;;;;5011577;28;20439;-88
2021/07/29 02:34:32;;;;;;;7.50;1.58;;;;;;;;;;5017949;28;20026;-88
2021/07/29 02:36:58;;;;;;;8.82;1.40;;;;;;;;;;5015447;28;20363;-88
2021/07/29 02:39:23;;;;;;;7.97;1.65;;;;;;;;;;5015414;28;20401;-87
2021/07/29 02:41:48;;;;;;;5.20;1.17;;;;;;;;;;5019213;28;20045;-88
2021/07/29 02:44:15;;;;;;;6.75;1.40;;;;;;;;;;5012680;28;20025;-89
2021/07/29 02:46:40;;;;;;;8.48;1.83;;;;;;;;;;5011749;28;20037;-88
2021/07/29 02:49:05;;;;;;;10.38;1.75;;;;;;;;;;5012496;28;20101;-89
2021/07/29 02:51:31;;;;;;;9.00;1.50;;;;;;;;;;5017661;28;20484;-89
2021/07/29 02:53:56;;;;;;;3.55;1.23;;;;;;;;;;5011095;28;20145;-89
2021/07/29 02:56:21;;;;;;;3.78;1.17;;;;;;;;;;5014362;28;20420;-88
2021/07/29 02:58:47;;;;;;;6.38;1.40;;;;;;;;;;5015894;28;20091;-88
2021/07/29 03:01:13;;;;;;;4.43;1.10;;;;;;;;;;5011136;28;20092;-88
2021/07/29 03:03:38;;;;;;;6.72;1.10;;;;;;;;;;5016402;28;20026;-88
2021/07/29 03:06:03;;;;;;;9.50;1.60;;;;;;;;;;5015467;28;20026;-88
2021/07/29 03:08:29;;;;;;;7.03;1.27;;;;;;;;;;5023380;28;20018;-88
2021/07/29 03:10:58;;;;;;;3.67;1.30;;;;;;;;;;5018727;28;20017;-88
2021/07/29 03:13:23;;;;;;;6.53;1.27;;;;;;;;;;5024500;28;20382;-89
2021/07/29 03:15:48;;;;;;;3.42;1.05;;;;;;;;;;5011360;28;20028;-89
2021/07/29 03:18:14;;;;;;;6.45;1.40;;;;;;;;;;5010790;28;20026;-89
2021/07/29 03:20:39;;;;;;;6.13;1.58;;;;;;;;;;5011310;28;20045;-88
2021/07/29 03:23:05;;;;;;;4.57;1.35;;;;;;;;;;5011226;28;20028;-88
2021/07/29 03:25:30;;;;;;;7.13;1.40;;;;;;;;;;5014910;28;20053;-88
2021/07/29 03:27:55;;;;;;;7.03;1.08;;;;;;;;;;5011108;28;20117;-88
2021/07/29 03:30:21;;;;;;;5.95;1.38;;;;;;;;;;5013773;28;20470;-88
2021/07/29 03:32:46;;;;;;;5.75;1.30;;;;;;;;;;5011385;28;20033;-88
2021/07/29 03:35:11;;;;;;;3.33;1.20;;;;;;;;;;5011460;28;20409;-88
2021/07/29 03:37:36;;;;;;;4.55;1.50;;;;;;;;;;5011330;28;20045;-88
2021/07/29 03:40:05;;;;;;;5.90;1.23;;;;;;;;;;5015470;28;20029;-88
2021/07/29 03:42:31;;;;;;;11.52;1.60;;;;;;;;;;5015254;28;20037;-88
2021/07/29 03:44:59;;;;;;;7.47;1.27;;;;;;;;;;5021016;28;20037;-88
2021/07/29 03:47:25;;;;;;;7.85;1.38;;;;;;;;;;5010226;28;20030;-88
2021/07/29 03:49:50;;;;;;;3.33;0.90;;;;;;;;;;5016226;28;20044;-88
2021/07/29 03:52:16;;;;;;;6.53;1.33;;;;;;;;;;5016338;28;20033;-87
2021/07/29 03:54:41;;;;;;;11.23;2.35;;;;;;;;;;5013834;28;20060;-88
2021/07/29 03:57:08;;;;;;;7.63;1.40;;;;;;;;;;5023117;28;20427;-88
2021/07/29 03:59:33;;;;;;;10.63;1.48;;;;;;;;;;5013870;28;20029;-88
2021/07/29 04:01:58;;;;;;;6.65;1.15;;;;;;;;;;5013957;28;20469;-88
2021/07/29 04:04:23;;;;;;;3.60;1.02;;;;;;;;;;5021258;28;20044;-88
2021/07/29 04:06:48;;;;;;;5.68;1.00;;;;;;;;;;5014108;28;20100;-88
2021/07/29 04:09:14;;;;;;;6.47;1.00;;;;;;;;;;5014302;28;20620;-88
2021/07/29 04:11:39;;;;;;;5.25;1.15;;;;;;;;;;5019624;28;20089;-88
2021/07/29 04:14:04;;;;;;;3.78;1.40;;;;;;;;;;5013982;28;20044;-88
2021/07/29 04:16:29;;;;;;;11.45;2.13;;;;;;;;;;5015332;28;20026;-88
2021/07/29 04:18:55;;;;;;;9.80;1.60;;;;;;;;;;5018761;28;20013;-88
2021/07/29 04:21:20;;;;;;;4.72;0.95;;;;;;;;;;5013611;28;20033;-88
2021/07/29 04:23:45;;;;;;;10.70;1.50;;;;;;;;;;5013617;28;20021;-89
2021/07/29 04:26:10;;;;;;;9.30;1.30;;;;;;;;;;5015794;28;20037;-88
2021/07/29 04:28:35;;;;;;;6.88;1.40;;;;;;;;;;5013603;28;21009;-88
2021/07/29 04:31:00;;;;;;;8.88;1.55;;;;;;;;;;5013676;28;20029;-88
2021/07/29 04:33:26;;;;;;;8.00;1.30;;;;;;;;;;5017435;28;20108;-88
2021/07/29 04:35:51;;;;;;;11.10;1.52;;;;;;;;;;5013493;28;20535;-88
2021/07/29 04:38:16;;;;;;;10.00;1.02;;;;;;;;;;5020393;28;20533;-88
2021/07/29 04:40:41;;;;;;;4.18;1.17;;;;;;;;;;5019744;28;20033;-88
2021/07/29 04:43:06;;;;;;;6.57;1.10;;;;;;;;;;5018596;28;20025;-88
2021/07/29 04:45:32;;;;;;;7.18;1.55;;;;;;;;;;5013017;28;20030;-88
2021/07/29 04:47:57;;;;;;;11.63;1.50;;;;;;;;;;5017680;28;20018;-89
2021/07/29 04:50:22;;;;;;;8.90;1.70;;;;;;;;;;5016689;28;20152;-88
2021/07/29 04:52:52;;;;;;;5.50;1.30;;;;;;;;;;5017350;28;20346;-88
2021/07/29 04:55:17;;;;;;;5.65;1.83;;;;;;;;;;5022111;28;20024;-88
2021/07/29 04:57:43;;;;;;;3.17;1.10;;;;;;;;;;5013146;28;20120;-88
2021/07/29 05:00:08;;;;;;;7.72;1.40;;;;;;;;;;5018503;28;20164;-89
2021/07/29 05:02:33;;;;;;;4.20;1.10;;;;;;;;;;5014535;28;20393;-88
2021/07/29 05:04:59;;;;;;;6.15;1.30;;;;;;;;;;5013000;28;20389;-88
2021/07/29 05:07:24;;;;;;;8.10;1.23;;;;;;;;;;5013249;28;20037;-88
2021/07/29 05:09:49;;;;;;;9.82;2.15;;;;;;;;;;5014497;28;20453;-88
2021/07/29 05:12:14;;;;;;;7.35;1.27;;;;;;;;;;5016902;28;20072;-89
2021/07/29 05:14:39;;;;;;;8.98;1.65;;;;;;;;;;5013900;28;20484;-89
2021/07/29 05:17:05;;;;;;;8.45;1.73;;;;;;;;;;5020204;28;20048;-89
2021/07/29 05:19:30;;;;;;;4.78;1.20;;;;;;;;;;5016343;28;20034;-87
2021/07/29 05:21:55;;;;;;;4.70;1.30;;;;;;;;;;5048865;28;20401;-88
2021/07/29 05:24:20;;;;;;;8.65;1.77;;;;;;;;;;5017560;28;20037;-88
2021/07/29 05:26:46;;;;;;;7.05;1.50;;;;;;;;;;5014391;28;20034;-87
2021/07/29 05:29:11;;;;;;;3.70;0.60;;;;;;;;;;5050674;28;20105;-89
2021/07/29 05:31:41;;;;;;;5.28;1.35;;;;;;;;;;5020352;28;20021;-88
2021/07/29 05:34:06;;;;;;;9.95;1.83;;;;;;;;;;5012466;28;20022;-88
2021/07/29 05:36:31;;;;;;;10.00;1.60;;;;;;;;;;5021062;28;20025;-88
2021/07/29 05:38:57;;;;;;;5.93;1.25;;;;;;;;;;5021835;28;20540;-88
2021/07/29 05:41:22;;;;;;;12.60;1.20;;;;;;;;;;5012690;28;20393;-88
2021/07/29 05:43:47;;;;;;;8.82;1.27;;;;;;;;;;5020843;28;20025;-87
2021/07/29 05:46:13;;;;;;;15.98;1.92;;;;;;;;;;5011871;28;20124;-88
2021/07/29 05:48:38;;;;;;;3.22;1.27;;;;;;;;;;5015293;28;20026;-89
2021/07/29 05:51:04;;;;;;;12.95;2.22;;;;;;;;;;5018964;28;20025;-89
2021/07/29 05:53:30;;;;;;;8.20;1.25;;;;;;;;;;5012272;28;20030;-89
2021/07/29 05:55:55;;;;;;;9.55;1.73;;;;;;;;;;5012043;28;20018;-89
2021/07/29 05:58:21;;;;;;;10.02;1.55;;;;;;;;;;5017517;28;20036;-89
2021/07/29 06:00:46;;;;;;;7.45;1.50;;;;;;;;;;5016069;28;20018;-87
2021/07/29 06:03:11;;;;;;;8.02;1.48;;;;;;;;;;5016306;28;20489;-89
2021/07/29 06:05:36;;;;;;;3.97;1.20;;;;;;;;;;5016119;28;20504;-89
2021/07/29 06:08:01;;;;;;;6.65;1.33;;;;;;;;;;5013557;28;20014;-89
2021/07/29 06:10:27;;;;;;;7.68;1.38;;;;;;;;;;5018973;28;20025;-89
2021/07/29 06:12:52;;;;;;;7.18;1.10;;;;;;;;;;5012128;28;20032;-89
2021/07/29 06:15:17;;;;;;;6.50;1.30;;;;;;;;;;5019602;28;20028;-90
2021/07/29 06:17:47;;;;;;;8.43;1.50;;;;;;;;;;5013773;28;20037;-89
2021/07/29 06:20:12;;;;;;;7.00;0.98;;;;;;;;;;5025264;28;20052;-89
2021/07/29 06:22:37;;;;;;;11.25;1.05;;;;;;;;;;5015215;28;20045;-89
2021/07/29 06:25:08;;;;;;;4.88;1.10;;;;;;;;;;5011935;28;20026;-89
2021/07/29 06:27:34;;;;;;;5.55;1.10;;;;;;;;;;5011546;28;20022;-89
2021/07/29 06:29:59;;;;;;;5.32;1.48;;;;;;;;;;5016287;28;20020;-89
2021/07/29 06:32:24;;;;;;;10.18;1.58;;;;;;;;;;5011448;28;20026;-90
2021/07/29 06:34:50;;;;;;;12.75;1.27;;;;;;;;;;5011742;28;20080;-89
2021/07/29 06:37:15;;;;;;;9.85;1.25;;;;;;;;;;5017186;28;20026;-89
2021/07/29 06:39:41;;;;;;;8.45;1.20;;;;;;;;;;5015208;28;20022;-90
2021/07/29 06:42:06;;;;;;;8.80;1.08;;;;;;;;;;5011176;28;20466;-89
2021/07/29 06:44:31;;;;;;;7.95;1.42;;;;;;;;;;5024310;28;20029;-89
2021/07/29 06:46:56;;;;;;;7.00;1.67;;;;;;;;;;5013155;28;20029;-90
2021/07/29 06:49:26;;;;;;;2.42;0.93;;;;;;;;;;5024805;28;20567;-90
2021/07/29 06:51:51;;;;;;;6.90;1.30;;;;;;;;;;5016792;28;20016;-89
2021/07/29 06:54:17;;;;;;;8.07;1.45;;;;;;;;;;5014794;28;20793;-88
2021/07/29 06:56:43;;;;;;;11.95;1.67;;;;;;;;;;5015227;28;20013;-89
2021/07/29 06:59:08;;;;;;;8.63;1.75;;;;;;;;;;5013843;28;20045;-88
2021/07/29 07:01:33;;;;;;;11.35;1.58;;;;;;;;;;5013502;28;20022;-89
2021/07/29 07:03:59;;;;;;;10.07;1.30;;;;;;;;;;5019022;28;20022;-90
2021/07/29 07:06:24;;;;;;;11.00;1.48;;;;;;;;;;5012275;28;20108;-89
2021/07/29 07:08:49;;;;;;;5.95;1.40;;;;;;;;;;5012676;28;20088;-89
2021/07/29 07:11:15;;;;;;;12.48;1.70;;;;;;;;;;5014923;28;20018;-89
2021/07/29 07:13:43;;;;;;;10.27;2.10;;;;;;;;;;5019512;28;20145;-89
2021/07/29 07:16:09;;;;;;;10.85;1.60;;;;;;;;;;5011884;28;20164;-90
2021/07/29 07:18:34;;;;;;;5.20;1.25;;;;;;;;;;5015993;28;20029;-89
2021/07/29 07:21:04;;;;;;;7.20;1.88;;;;;;;;;;5011507;28;20028;-89
2021/07/29 07:23:29;;;;;;;7.68;1.45;;;;;;;;;;5015638;28;20127;-90
2021/07/29 07:25:54;;;;;;;7.47;1.00;;;;;;;;;;5011400;28;20053;-90
2021/07/29 07:28:19;;;;;;;7.78;1.52;;;;;;;;;;5011935;28;20108;-90
2021/07/29 07:30:44;;;;;;;11.10;1.63;;;;;;;;;;5014782;28;20022;-90
2021/07/29 07:33:09;;;;;;;5.53;1.60;;;;;;;;;;5018380;28;20465;-91
2021/07/29 07:35:35;;;;;;;10.63;1.75;;;;;;;;;;5015845;28;20442;-89
2021/07/29 07:38:00;;;;;;;4.40;1.58;;;;;;;;;;5015917;28;20093;-91
2021/07/29 07:40:25;;;;;;;9.98;1.23;;;;;;;;;;5015609;28;20109;-92
2021/07/29 07:42:50;;;;;;;12.27;2.60;;;;;;;;;;5016727;28;20049;-91
2021/07/29 07:45:16;;;;;;;10.50;1.88;;;;;;;;;;5020657;28;20053;-90
2021/07/29 07:47:42;;;;;;;3.97;1.17;;;;;;;;;;5018390;28;20056;-90
2021/07/29 07:50:07;;;;;;;4.53;0.75;;;;;;;;;;5024653;28;20022;-90
2021/07/29 07:52:33;;;;;;;7.50;1.27;;;;;;;;;;5018863;28;20307;-90
2021/07/29 07:54:58;;;;;;;12.63;2.25;;;;;;;;;;5020758;28;20025;-89
2021/07/29 07:57:23;;;;;;;11.48;1.95;;;;;;;;;;5014913;28;20025;-90
2021/07/29 07:59:50;;;;;;;10.02;1.77;;;;;;;;;;5024232;28;20028;-90
2021/07/29 08:02:16;;;;;;;9.73;1.88;;;;;;;;;;5029554;28;20102;-90
2021/07/29 08:04:41;;;;;;;10.10;1.70;;;;;;;;;;5019670;28;20017;-90
2021/07/29 08:07:06;;;;;;;6.00;1.75;;;;;;;;;;5023476;28;20025;-90
2021/07/29 08:09:31;;;;;;;6.13;1.67;;;;;;;;;;5018923;28;20111;-90
2021/07/29 08:11:56;;;;;;;7.07;1.42;;;;;;;;;;5018771;28;20044;-90
2021/07/29 08:14:22;;;;;;;7.78;1.50;;;;;;;;;;5033492;28;20056;-90
2021/07/29 08:16:47;;;;;;;8.52;1.60;;;;;;;;;;5045865;28;20076;-89
2021/07/29 08:19:12;;;;;;;6.75;1.60;;;;;;;;;;5014487;28;20032;-90
2021/07/29 08:21:37;;;;;;;11.68;1.90;;;;;;;;;;5014368;28;20049;-90
2021/07/29 08:24:03;;;;;;;1.45;0.55;;;;;;;;;;5015177;28;20022;-90
2021/07/29 08:26:28;;;;;;;6.70;1.70;;;;;;;;;;5014506;28;20113;-90
2021/07/29 08:28:54;;;;;;;8.15;1.88;;;;;;;;;;5013905;28;20041;-90
2021/07/29 08:31:19;;;;;;;12.52;2.05;;;;;;;;;;5024527;28;20053;-90
2021/07/29 08:33:45;;;;;;;8.75;1.75;;;;;;;;;;5018248;28;20014;-90
2021/07/29 08:36:14;;;;;;;7.45;1.90;;;;;;;;;;5015172;28;20018;-90
2021/07/29 08:38:39;;;;;;;12.13;1.90;;;;;;;;;;5053780;28;20101;-89
2021/07/29 08:41:04;;;;;;;10.25;2.10;;;;;;;;;;5044127;28;20060;-90
2021/07/29 08:43:31;;;;;;;7.75;2.08;;;;;;;;;;5014828;28;20028;-92
2021/07/29 08:45:56;;;;;;;13.40;1.75;;;;;;;;;;5016822;28;20536;-92
2021/07/29 08:48:26;;;;;;;8.25;1.90;;;;;;;;;;5014411;28;20058;-89
2021/07/29 08:50:52;;;;;;;8.35;1.58;;;;;;;;;;5017109;28;20033;-91
2021/07/29 08:53:17;;;;;;;7.55;2.35;;;;;;;;;;5014898;28;20033;-90
2021/07/29 08:55:46;;;;;;;4.78;1.30;;;;;;;;;;5016737;28;20022;-91
2021/07/29 08:58:12;;;;;;;6.65;1.60;;;;;;;;;;5014844;28;20528;-90
2021/07/29 09:00:37;;;;;;;17.02;2.88;;;;;;;;;;5013347;28;20053;-90
2021/07/29 09:03:18;;;;;;;11.82;2.15;;;;;;;;;;5013919;28;20544;-91
2021/07/29 09:05:57;;;;;;;4.70;1.35;;;;;;;;;;5007586;28;20022;-90
2021/07/29 09:08:23;;;;;;;8.40;1.80;;;;;;;;;;5036894;28;20018;-91
2021/07/29 09:10:48;;;;;;;14.00;2.05;;;;;;;;;;5014330;28;20025;-91
2021/07/29 09:13:18;;;;;;;11.38;2.08;;;;;;;;;;5014072;28;20029;-91
2021/07/29 09:15:44;;;;;;;7.45;1.63;;;;;;;;;;5008331;28;20071;-89
2021/07/29 09:18:10;;;;;;;8.20;1.60;;;;;;;;;;5015025;28;20097;-90
2021/07/29 09:20:36;;;;;;;10.32;1.73;;;;;;;;;;5014313;28;20437;-89
2021/07/29 09:23:11;;;;;;;9.88;2.08;;;;;;;;;;5014188;28;20025;-89
2021/07/29 09:25:37;;;;;;;7.45;1.60;;;;;;;;;;5016969;28;20112;-89
2021/07/29 09:28:03;;;;;;;6.28;1.48;;;;;;;;;;5017965;28;20112;-90
2021/07/29 09:30:30;;;;;;;9.80;1.73;;;;;;;;;;5013558;28;20445;-91
2021/07/29 09:33:09;;;;;;;9.30;2.00;;;;;;;;;;5016715;28;20048;-92
2021/07/29 09:35:38;;;;;;;11.27;1.90;;;;;;;;;;5015621;28;20112;-93
2021/07/29 09:38:04;;;;;;;11.52;2.55;;;;;;;;;;5020294;28;20020;-91
2021/07/29 09:40:42;;;;;;;8.02;1.88;;;;;;;;;;5016390;28;20014;-92
2021/07/29 09:43:13;;;;;;;10.43;1.88;;;;;;;;;;5014647;28;20381;-91
2021/07/29 09:45:39;;;;;;;5.82;1.27;;;;;;;;;;5020020;28;20022;-93
2021/07/29 09:48:08;;;;;;;8.98;1.90;;;;;;;;;;5020238;28;20034;-92
2021/07/29 09:50:33;;;;;;;11.10;1.65;;;;;;;;;;5015398;28;20496;-91
2021/07/29 09:52:59;;;;;;;7.05;1.52;;;;;;;;;;5011230;28;20100;-92
2021/07/29 09:55:25;;;;;;;8.27;1.70;;;;;;;;;;5022393;28;20022;-91
2021/07/29 09:57:50;;;;;;;6.57;1.60;;;;;;;;;;5019976;28;20381;-88
2021/07/29 10:00:16;;;;;;;9.25;2.55;;;;;;;;;;5012226;28;20156;-89
2021/07/29 10:02:41;;;;;;;5.07;1.40;;;;;;;;;;5020900;28;20032;-88
2021/07/29 10:05:07;;;;;;;8.98;2.05;;;;;;;;;;5013087;28;20026;-88
2021/07/29 10:07:35;;;;;;;9.00;1.92;;;;;;;;;;5011446;28;20551;-89
2021/07/29 10:10:03;;;;;;;8.23;1.83;;;;;;;;;;5012650;28;20071;-88
2021/07/29 10:12:30;;;;;;;6.90;1.58;;;;;;;;;;5012801;28;20029;-88
2021/07/29 10:14:56;;;;;;;3.72;1.52;;;;;;;;;;5043099;28;20024;-87
2021/07/29 10:17:34;;;;;;;11.68;1.63;;;;;;;;;;5049036;28;20056;-89
2021/07/29 10:20:11;;;;;;;4.97;1.55;;;;;;;;;;5034643;28;20026;-88
2021/07/29 10:22:36;;;;;;;5.90;2.00;;;;;;;;;;5011601;28;20033;-88
2021/07/29 10:25:02;;;;;;;5.18;1.42;;;;;;;;;;5019689;28;20362;-88
2021/07/29 10:27:27;;;;;;;9.57;1.52;;;;;;;;;;5011603;28;20113;-89
2021/07/29 10:29:52;;;;;;;4.32;1.20;;;;;;;;;;5013461;28;20026;-88
2021/07/29 10:32:37;;;;;;;7.78;1.58;;;;;;;;;;5013956;28;20041;-88
2021/07/29 10:35:25;;;;;;;6.90;1.40;;;;;;;;;;5019500;28;20400;-88
2021/07/29 10:37:53;;;;;;;8.75;1.45;;;;;;;;;;5045906;28;20446;-89
2021/07/29 10:40:30;;;;;;;5.30;1.38;;;;;;;;;;5011186;28;20036;-88
2021/07/29 10:42:55;;;;;;;8.85;1.77;;;;;;;;;;5017123;28;20114;-89
2021/07/29 10:45:41;;;;;;;5.07;1.17;;;;;;;;;;5022879;28;20458;-88
2021/07/29 10:48:06;;;;;;;4.90;1.10;;;;;;;;;;5036781;28;20057;-88
2021/07/29 10:50:31;;;;;;;7.05;1.48;;;;;;;;;;5020263;28;20064;-89
2021/07/29 10:52:56;;;;;;;7.60;1.35;;;;;;;;;;5011547;28;20030;-88
2021/07/29 10:55:22;;;;;;;4.57;1.60;;;;;;;;;;5013521;28;20085;-88
2021/07/29 10:57:57;;;;;;;2.83;1.35;;;;;;;;;;5011111;28;20059;-88
2021/07/29 11:00:22;;;;;;;6.20;1.30;;;;;;;;;;5014778;28;20112;-88
2021/07/29 11:02:49;;;;;;;7.57;2.00;;;;;;;;;;5019629;28;20100;-88
2021/07/29 11:05:20;;;;;;;5.10;1.33;;;;;;;;;;5030632;28;20017;-89
2021/07/29 11:07:47;;;;;;;3.72;1.38;;;;;;;;;;5018067;28;20071;-88
2021/07/29 11:10:16;;;;;;;8.32;1.30;;;;;;;;;;5023452;28;20021;-89
2021/07/29 11:12:42;;;;;;;7.28;1.20;;;;;;;;;;5020872;28;20026;-89
2021/07/29 11:15:08;;;;;;;7.72;1.60;;;;;;;;;;5024721;28;20017;-88
2021/07/29 11:17:33;;;;;;;5.03;2.03;;;;;;;;;;5022636;28;21611;-89
2021/07/29 11:19:59;;;;;;;3.10;1.15;;;;;;;;;;5020823;28;20124;-88
2021/07/29 11:22:24;;;;;;;7.88;1.52;;;;;;;;;;5016287;28;20022;-89
2021/07/29 11:24:49;;;;;;;5.20;1.17;;;;;;;;;;5022098;28;20029;-88
2021/07/29 11:27:14;;;;;;;6.40;1.33;;;;;;;;;;5024404;28;20029;-88
2021/07/29 11:29:53;;;;;;;12.43;1.30;;;;;;;;;;5021929;28;20014;-88
2021/07/29 11:32:18;;;;;;;6.22;1.40;;;;;;;;;;5054014;28;20030;-89
2021/07/29 11:34:43;;;;;;;7.55;1.48;;;;;;;;;;5054073;28;20109;-88
2021/07/29 11:37:08;;;;;;;4.03;1.20;;;;;;;;;;5023052;28;20025;-88
2021/07/29 11:39:38;;;;;;;7.05;1.17;;;;;;;;;;5016188;28;20052;-88
2021/07/29 11:42:03;;;;;;;7.60;1.33;;;;;;;;;;5015688;28;20108;-89
2021/07/29 11:44:38;;;;;;;6.72;1.52;;;;;;;;;;5008601;28;20477;-89
2021/07/29 11:47:04;;;;;;;3.67;1.00;;;;;;;;;;5014487;28;20030;-88
2021/07/29 11:49:29;;;;;;;4.15;1.08;;;;;;;;;;5016858;28;20362;-89
2021/07/29 11:52:03;;;;;;;1.42;0.65;;;;;;;;;;5015850;28;20029;-88
2021/07/29 11:54:30;;;;;;;6.03;1.60;;;;;;;;;;5014018;28;20017;-89
2021/07/29 11:56:56;;;;;;;8.32;1.60;;;;;;;;;;5027044;28;20071;-89
2021/07/29 11:59:22;;;;;;;5.72;1.35;;;;;;;;;;5018144;28;20454;-88
2021/07/29 12:01:48;;;;;;;4.05;1.20;;;;;;;;;;5021174;28;20120;-89
2021/07/29 12:04:14;;;;;;;11.75;1.55;;;;;;;;;;5016213;28;20393;-88
2021/07/29 12:06:39;;;;;;;4.30;1.02;;;;;;;;;;5021119;28;20021;-88
2021/07/29 12:09:04;;;;;;;2.10;1.00;;;;;;;;;;5031637;28;20036;-88
2021/07/29 12:11:30;;;;;;;3.75;1.10;;;;;;;;;;5016210;28;20018;-88
2021/07/29 12:13:55;;;;;;;11.00;1.45;;;;;;;;;;5014607;28;20116;-88
2021/07/29 12:16:39;;;;;;;8.30;1.45;;;;;;;;;;5024614;28;20029;-88
2021/07/29 12:19:04;;;;;;;1.95;1.27;;;;;;;;;;5013839;28;20033;-87
2021/07/29 12:21:33;;;;;;;11.63;1.90;;;;;;;;;;5026008;28;20540;-88
2021/07/29 12:23:58;;;;;;;4.63;1.52;;;;;;;;;;5021539;28;20500;-88
2021/07/29 12:26:23;;;;;;;5.10;1.30;;;;;;;;;;5014366;28;20029;-89
2021/07/29 12:28:48;;;;;;;4.78;1.67;;;;;;;;;;5017910;28;20047;-88
2021/07/29 12:31:18;;;;;;;3.80;1.38;;;;;;;;;;5013791;28;20021;-88
2021/07/29 12:33:46;;;;;;;4.40;1.95;;;;;;;;;;5013231;28;20037;-88
2021/07/29 12:36:12;;;;;;;9.30;1.42;;;;;;;;;;5014584;28;20013;-88
2021/07/29 12:38:38;;;;;;;3.95;0.90;;;;;;;;;;5013674;28;20469;-89
2021/07/29 12:41:05;;;;;;;3.15;1.35;;;;;;;;;;5014599;28;20021;-88
2021/07/29 12:43:30;;;;;;;9.65;1.48;;;;;;;;;;5013573;28;20030;-88
2021/07/29 12:45:57;;;;;;;6.80;1.92;;;;;;;;;;5022603;28;20029;-88
2021/07/29 12:48:23;;;;;;;9.00;1.85;;;;;;;;;;5012932;28;20050;-87
2021/07/29 12:50:48;;;;;;;6.78;1.58;;;;;;;;;;5016193;28;20061;-88
2021/07/29 12:53:14;;;;;;;6.82;1.50;;;;;;;;;;5021353;28;20041;-86
2021/07/29 12:55:40;;;;;;;4.75;1.48;;;;;;;;;;5024364;28;20056;-88
2021/07/29 12:58:07;;;;;;;5.93;1.48;;;;;;;;;;5041853;28;20545;-89
2021/07/29 13:00:32;;;;;;;6.57;1.30;;;;;;;;;;5029702;28;20064;-88
2021/07/29 13:02:57;;;;;;;6.43;1.70;;;;;;;;;;5024547;28;20045;-89
2021/07/29 13:05:23;;;;;;;3.78;1.05;;;;;;;;;;5021811;28;20021;-88
2021/07/29 13:07:53;;;;;;;8.02;1.67;;;;;;;;;;5028245;28;20033;-89
2021/07/29 13:10:18;;;;;;;3.60;0.95;;;;;;;;;;5020958;28;20113;-87
2021/07/29 13:12:45;;;;;;;4.50;1.75;;;;;;;;;;5012592;28;20105;-88
2021/07/29 13:15:12;;;;;;;4.78;1.90;;;;;;;;;;5013115;28;20104;-88
2021/07/29 13:17:38;;;;;;;5.00;1.10;;;;;;;;;;5028856;28;20432;-89
2021/07/29 13:20:03;;;;;;;10.40;1.90;;;;;;;;;;5016151;28;20067;-88
2021/07/29 13:22:28;;;;;;;3.03;1.10;;;;;;;;;;5020721;28;20083;-88
2021/07/29 13:24:55;;;;;;;8.85;1.48;;;;;;;;;;5021367;28;20074;-89
2021/07/29 13:27:21;;;;;;;6.45;1.40;;;;;;;;;;5008762;28;20026;-88
2021/07/29 13:29:46;;;;;;;5.45;1.42;;;;;;;;;;5022338;28;20018;-89
2021/07/29 13:32:12;;;;;;;7.28;1.73;;;;;;;;;;5021809;28;20076;-88
2021/07/29 13:34:37;;;;;;;4.65;1.65;;;;;;;;;;5013302;28;20236;-88
2021/07/29 13:37:02;;;;;;;6.13;1.85;;;;;;;;;;5012466;28;20033;-89
2021/07/29 13:39:28;;;;;;;5.70;1.60;;;;;;;;;;5012911;28;20029;-87
2021/07/29 13:41:53;;;;;;;6.88;1.50;;;;;;;;;;5017464;28;20018;-89
2021/07/29 13:44:22;;;;;;;7.50;1.52;;;;;;;;;;5019293;28;20029;-88
2021/07/29 13:46:47;;;;;;;6.07;1.55;;;;;;;;;;5024872;28;20033;-88
2021/07/29 13:49:13;;;;;;;5.18;1.45;;;;;;;;;;5011828;28;20101;-88
2021/07/29 13:51:38;;;;;;;6.72;1.95;;;;;;;;;;5012410;28;20127;-89
2021/07/29 13:54:03;;;;;;;5.25;1.38;;;;;;;;;;5016516;28;20105;-89
2021/07/29 13:56:28;;;;;;;5.53;1.98;;;;;;;;;;5012241;28;20030;-89
2021/07/29 13:58:53;;;;;;;3.42;1.60;;;;;;;;;;5013974;28;21482;-88
2021/07/29 14:01:19;;;;;;;6.65;1.40;;;;;;;;;;5021968;28;20540;-87
2021/07/29 14:03:44;;;;;;;12.32;1.85;;;;;;;;;;5013199;28;20478;-88
2021/07/29 14:06:09;;;;;;;2.08;0.60;;;;;;;;;;5015740;28;20029;-88
2021/07/29 14:08:34;;;;;;;0.50;0.20;;;;;;;;;;5019972;28;20055;-87
2021/07/29 14:11:00;;;;;;;4.15;1.42;;;;;;;;;;5015878;28;20373;-87
2021/07/29 14:13:25;;;;;;;8.25;1.80;;;;;;;;;;5012253;28;20101;-88
2021/07/29 14:15:50;;;;;;;4.80;1.35;;;;;;;;;;5011841;28;20049;-88
2021/07/29 14:18:16;;;;;;;5.60;1.60;;;;;;;;;;5011722;28;20106;-88
2021/07/29 14:20:43;;;;;;;7.97;1.88;;;;;;;;;;5011154;28;20021;-88
2021/07/29 14:23:13;;;;;;;7.43;1.55;;;;;;;;;;5010900;28;20041;-87
2021/07/29 14:25:39;;;;;;;6.82;1.50;;;;;;;;;;5011508;28;20022;-87
2021/07/29 14:28:06;;;;;;;8.07;1.88;;;;;;;;;;5015820;28;20029;-87
2021/07/29 14:30:31;;;;;;;7.55;2.03;;;;;;;;;;5018751;28;20018;-87
2021/07/29 14:32:57;;;;;;;7.13;1.75;;;;;;;;;;5018189;28;20588;-87
2021/07/29 14:35:22;;;;;;;7.22;1.52;;;;;;;;;;5013482;28;20120;-88
2021/07/29 14:37:47;;;;;;;4.53;1.63;;;;;;;;;;5011671;28;20041;-87